Time;durP1;ratioP1;P1;durP2;ratioP2;P2;SDS_P1;SDS_P2;PMS_P1;PMS_P2;Temp;Humidity;BMP_temperature;BMP_pressure;BME280_temperature;BME280_humidity;BME280_pressure;Samples;Min_cycle;Max_cycle;Signal;HPM_P1;HPM_P2
2022/12/17 13:06:00;;;;;;;2.63;1.10;;;;;;;;;;5033165;28;20075;-77
2022/12/17 13:08:26;;;;;;;2.30;0.93;;;;;;;;;;5032574;28;20028;-76
2022/12/17 13:10:53;;;;;;;1.37;0.80;;;;;;;;;;5033606;28;20026;-77
2022/12/17 13:13:54;;;;;;;1.13;0.80;;;;;;;;;;5033693;28;20471;-77
2022/12/17 13:16:39;;;;;;;1.60;0.90;;;;;;;;;;5032871;28;20030;-78
2022/12/17 13:19:41;;;;;;;1.20;0.83;;;;;;;;;;5033732;28;20025;-77
2022/12/17 13:22:20;;;;;;;1.63;0.97;;;;;;;;;;5033701;28;20029;-78
2022/12/17 13:27:49;;;;;;;1.40;0.90;;;;;;;;;;5070709;28;20036;-78
2022/12/17 13:30:24;;;;;;;1.23;0.88;;;;;;;;;;5031919;28;20029;-77
2022/12/17 13:33:08;;;;;;;6.60;0.90;;;;;;;;;;5032982;28;20037;-78
2022/12/17 13:36:03;;;;;;;1.40;0.90;;;;;;;;;;5033257;28;20095;-77
2022/12/17 13:38:38;;;;;;;1.80;1.05;;;;;;;;;;5033718;28;20053;-76
2022/12/17 13:41:07;;;;;;;2.00;1.40;;;;;;;;;;5033051;28;20028;-77
2022/12/17 13:43:55;;;;;;;1.50;1.20;;;;;;;;;;5032925;28;20025;-76
2022/12/17 13:46:28;;;;;;;1.70;1.10;;;;;;;;;;5032396;28;20371;-77
2022/12/17 13:48:54;;;;;;;1.95;1.10;;;;;;;;;;5033644;28;20053;-76
2022/12/17 13:51:20;;;;;;;1.90;1.20;;;;;;;;;;5033414;28;20057;-76
2022/12/17 13:54:00;;;;;;;1.43;1.03;;;;;;;;;;5033392;28;20445;-76
2022/12/17 13:56:28;;;;;;;1.27;0.90;;;;;;;;;;5033006;28;20391;-77
2022/12/17 13:58:55;;;;;;;1.77;1.10;;;;;;;;;;5032664;28;20109;-76
2022/12/17 14:01:21;;;;;;;2.77;2.17;;;;;;;;;;5032927;28;20033;-77
2022/12/17 14:03:52;;;;;;;4.50;1.27;;;;;;;;;;5032732;28;20026;-77
2022/12/17 14:06:18;;;;;;;1.73;1.17;;;;;;;;;;5032644;28;20033;-77
2022/12/17 14:08:45;;;;;;;1.70;1.20;;;;;;;;;;5032678;28;20504;-77
2022/12/17 14:13:56;;;;;;;2.20;1.27;;;;;;;;;;5034165;28;20083;-76
2022/12/17 14:16:23;;;;;;;1.50;1.10;;;;;;;;;;5038025;28;20018;-75
2022/12/17 14:18:51;;;;;;;3.70;1.20;;;;;;;;;;5038878;28;20040;-76
2022/12/17 14:21:17;;;;;;;1.33;1.03;;;;;;;;;;5044364;28;20063;-78
2022/12/17 14:23:44;;;;;;;1.93;1.40;;;;;;;;;;5039584;28;20036;-74
2022/12/17 14:26:11;;;;;;;1.97;1.27;;;;;;;;;;5035698;28;20053;-76
2022/12/17 14:28:48;;;;;;;2.57;1.30;;;;;;;;;;5032489;28;20033;-77
2022/12/17 14:31:14;;;;;;;2.63;1.30;;;;;;;;;;5034969;28;20021;-77
2022/12/17 14:33:41;;;;;;;6.50;1.40;;;;;;;;;;5036080;28;20137;-74
2022/12/17 14:36:09;;;;;;;2.17;1.30;;;;;;;;;;5035840;28;20391;-77
2022/12/17 14:38:35;;;;;;;1.77;1.20;;;;;;;;;;5034825;28;20021;-75
2022/12/17 14:42:24;;;;;;;1.60;1.30;;;;;;;;;;5035749;28;20030;-75
2022/12/17 14:43:55;;;;;;;2.50;1.50;;;;;;;;;;5035881;28;20037;-78
2022/12/17 14:46:22;;;;;;;2.73;1.20;;;;;;;;;;5035623;28;20137;-76
2022/12/17 14:49:00;;;;;;;2.90;1.50;;;;;;;;;;5035479;28;20017;-74
2022/12/17 14:51:37;;;;;;;2.50;1.50;;;;;;;;;;5034765;28;20373;-75
2022/12/17 14:54:22;;;;;;;2.27;1.70;;;;;;;;;;5036022;28;20033;-75
2022/12/17 14:56:49;;;;;;;4.50;1.50;;;;;;;;;;5034437;28;20487;-77
2022/12/17 14:59:42;;;;;;;7.40;4.23;;;;;;;;;;5034916;28;20022;-79
2022/12/17 15:02:09;;;;;;;3.38;1.70;;;;;;;;;;5036340;28;20041;-79
2022/12/17 15:04:36;;;;;;;2.73;1.90;;;;;;;;;;5035697;28;20376;-78
2022/12/17 15:07:03;;;;;;;1.80;1.40;;;;;;;;;;5035680;28;20029;-77
2022/12/17 15:09:34;;;;;;;2.60;1.50;;;;;;;;;;5035731;28;20498;-78
2022/12/17 15:12:01;;;;;;;2.40;1.70;;;;;;;;;;5035622;28;20369;-77
2022/12/17 15:14:33;;;;;;;2.97;1.80;;;;;;;;;;5035581;28;20403;-73
2022/12/17 15:17:02;;;;;;;2.80;1.77;;;;;;;;;;5035539;28;20033;-73
2022/12/17 15:19:37;;;;;;;2.83;2.00;;;;;;;;;;5034938;28;20113;-76
2022/12/17 15:22:12;;;;;;;2.27;1.70;;;;;;;;;;5034378;28;20083;-74
2022/12/17 15:24:38;;;;;;;3.30;2.20;;;;;;;;;;5033699;28;20100;-78
2022/12/17 15:27:09;;;;;;;2.67;2.00;;;;;;;;;;5031860;28;20032;-78
2022/12/17 15:29:35;;;;;;;3.30;1.97;;;;;;;;;;5031859;28;20033;-77
2022/12/17 15:32:02;;;;;;;3.70;2.60;;;;;;;;;;5034604;28;20044;-77
2022/12/17 15:34:29;;;;;;;3.43;2.20;;;;;;;;;;5034773;28;20053;-77
2022/12/17 15:36:55;;;;;;;3.70;2.00;;;;;;;;;;5033308;28;20032;-77
2022/12/17 15:39:21;;;;;;;2.77;2.00;;;;;;;;;;5034792;28;20026;-77
2022/12/17 15:44:32;;;;;;;3.07;2.00;;;;;;;;;;5035143;28;20091;-74
2022/12/17 15:46:58;;;;;;;3.17;2.17;;;;;;;;;;5034514;28;20498;-75
2022/12/17 15:49:24;;;;;;;2.77;1.73;;;;;;;;;;5034458;28;20041;-76
2022/12/17 15:51:50;;;;;;;2.70;1.93;;;;;;;;;;5032577;28;20422;-77
2022/12/17 15:54:16;;;;;;;3.87;2.40;;;;;;;;;;5033881;28;20041;-75
2022/12/17 15:56:51;;;;;;;3.40;2.47;;;;;;;;;;5030941;28;20590;-77
2022/12/17 15:59:17;;;;;;;3.17;1.93;;;;;;;;;;5031315;28;20553;-76
2022/12/17 16:01:43;;;;;;;4.60;2.10;;;;;;;;;;5034150;28;20021;-78
2022/12/17 16:04:09;;;;;;;2.63;2.10;;;;;;;;;;5034536;28;20033;-76
2022/12/17 16:06:35;;;;;;;2.47;1.87;;;;;;;;;;5034540;28;20101;-76
2022/12/17 16:09:01;;;;;;;3.93;2.30;;;;;;;;;;5034385;28;20021;-76
2022/12/17 16:11:27;;;;;;;3.17;2.20;;;;;;;;;;5032869;28;20380;-78
2022/12/17 16:13:54;;;;;;;2.90;2.10;;;;;;;;;;5034130;28;20088;-77
2022/12/17 16:16:20;;;;;;;2.30;1.80;;;;;;;;;;5034402;28;20483;-77
2022/12/17 16:18:46;;;;;;;2.70;2.10;;;;;;;;;;5034369;28;20072;-76
2022/12/17 16:21:12;;;;;;;3.23;2.33;;;;;;;;;;5031450;28;20487;-78
2022/12/17 16:23:39;;;;;;;3.60;2.13;;;;;;;;;;5031286;28;20033;-77
2022/12/17 16:26:06;;;;;;;4.13;2.50;;;;;;;;;;5031789;28;20025;-78
2022/12/17 16:28:32;;;;;;;3.17;2.27;;;;;;;;;;5032553;28;20124;-77
2022/12/17 16:30:59;;;;;;;3.43;2.43;;;;;;;;;;5032666;28;20475;-77
2022/12/17 16:33:25;;;;;;;3.57;2.10;;;;;;;;;;5033400;28;20695;-78
2022/12/17 16:35:52;;;;;;;4.03;2.47;;;;;;;;;;5033639;28;20499;-76
2022/12/17 16:38:18;;;;;;;4.67;2.83;;;;;;;;;;5033577;28;20026;-77
2022/12/17 16:40:44;;;;;;;6.27;4.40;;;;;;;;;;5033315;28;20437;-77
2022/12/17 16:43:10;;;;;;;4.17;3.33;;;;;;;;;;5034218;28;20028;-78
2022/12/17 16:45:45;;;;;;;5.23;2.70;;;;;;;;;;5034253;28;20407;-77
2022/12/17 16:48:11;;;;;;;4.37;2.93;;;;;;;;;;5034168;28;20479;-77
2022/12/17 16:50:37;;;;;;;3.60;2.90;;;;;;;;;;5033673;28;20025;-76
2022/12/17 16:53:06;;;;;;;3.20;2.60;;;;;;;;;;5034094;28;20113;-78
2022/12/17 16:55:39;;;;;;;3.80;2.70;;;;;;;;;;5033871;28;20045;-77
2022/12/17 16:58:05;;;;;;;4.05;2.85;;;;;;;;;;5033574;28;20021;-78
2022/12/17 17:00:55;;;;;;;4.50;3.23;;;;;;;;;;5034032;28;20406;-76
2022/12/17 17:03:45;;;;;;;4.30;3.03;;;;;;;;;;5035677;28;20048;-78
2022/12/17 17:06:11;;;;;;;3.87;3.10;;;;;;;;;;5033010;28;20515;-76
2022/12/17 17:08:39;;;;;;;4.23;3.03;;;;;;;;;;5033518;28;20403;-76
2022/12/17 17:11:10;;;;;;;6.03;3.37;;;;;;;;;;5033281;28;20021;-78
2022/12/17 17:13:40;;;;;;;3.97;3.17;;;;;;;;;;5032958;28;20119;-77
2022/12/17 17:16:15;;;;;;;4.00;3.23;;;;;;;;;;5032010;28;20018;-78
2022/12/17 17:18:41;;;;;;;5.77;3.77;;;;;;;;;;5033215;28;20037;-76
2022/12/17 17:21:22;;;;;;;5.60;3.80;;;;;;;;;;5032696;28;20021;-74
2022/12/17 17:23:50;;;;;;;4.73;3.27;;;;;;;;;;5032871;28;20026;-74
2022/12/17 17:26:16;;;;;;;5.00;3.43;;;;;;;;;;5032619;28;20030;-77
2022/12/17 17:28:44;;;;;;;4.17;3.33;;;;;;;;;;5032765;28;20033;-74
2022/12/17 17:31:11;;;;;;;4.70;3.53;;;;;;;;;;5033040;28;20387;-75
2022/12/17 17:33:39;;;;;;;3.70;2.90;;;;;;;;;;5032765;28;20573;-74
2022/12/17 17:36:06;;;;;;;4.03;2.83;;;;;;;;;;5032590;28;20026;-76
2022/12/17 17:38:33;;;;;;;5.07;3.47;;;;;;;;;;5031539;28;20474;-75
2022/12/17 17:40:59;;;;;;;5.47;3.37;;;;;;;;;;5033134;28;20083;-73
2022/12/17 17:43:25;;;;;;;5.17;3.73;;;;;;;;;;5032591;28;20513;-74
2022/12/17 17:45:52;;;;;;;4.17;3.23;;;;;;;;;;5032653;28;20025;-74
2022/12/17 17:48:18;;;;;;;7.70;3.20;;;;;;;;;;5032738;28;20087;-73
2022/12/17 17:50:44;;;;;;;4.67;3.50;;;;;;;;;;5048199;28;20068;-73
2022/12/17 17:53:10;;;;;;;4.33;3.17;;;;;;;;;;5036787;28;20037;-74
2022/12/17 17:55:36;;;;;;;4.50;3.27;;;;;;;;;;5036714;28;20032;-73
2022/12/17 17:58:02;;;;;;;24.63;13.57;;;;;;;;;;5036089;28;20029;-74
2022/12/17 18:00:28;;;;;;;6.40;4.40;;;;;;;;;;5036675;28;20043;-75
2022/12/17 18:02:55;;;;;;;8.73;5.90;;;;;;;;;;5036879;28;20040;-73
2022/12/17 18:05:21;;;;;;;4.90;3.47;;;;;;;;;;5035081;28;20022;-72
2022/12/17 18:07:47;;;;;;;5.27;3.67;;;;;;;;;;5036621;28;20395;-76
2022/12/17 18:10:13;;;;;;;5.93;3.50;;;;;;;;;;5036449;28;20479;-74
2022/12/17 18:15:23;;;;;;;4.80;3.70;;;;;;;;;;5036710;28;20088;-73
2022/12/17 18:17:50;;;;;;;5.30;3.17;;;;;;;;;;5036285;28;20541;-73
2022/12/17 18:20:17;;;;;;;4.00;3.30;;;;;;;;;;5034351;28;20491;-74
2022/12/17 18:22:44;;;;;;;6.03;3.20;;;;;;;;;;5036273;28;20053;-73
2022/12/17 18:25:10;;;;;;;4.30;3.10;;;;;;;;;;5036094;28;20074;-73
2022/12/17 18:27:37;;;;;;;6.87;3.50;;;;;;;;;;5035586;28;20029;-73
2022/12/17 18:30:03;;;;;;;5.50;3.33;;;;;;;;;;5044642;28;20083;-74
2022/12/17 18:32:30;;;;;;;4.17;3.27;;;;;;;;;;5039118;28;20452;-74
2022/12/17 18:34:56;;;;;;;6.17;3.27;;;;;;;;;;5043153;28;20072;-74
2022/12/17 18:37:22;;;;;;;6.10;3.70;;;;;;;;;;5044607;28;20017;-73
2022/12/17 18:39:55;;;;;;;6.63;3.67;;;;;;;;;;5046649;28;20025;-73
2022/12/17 18:45:06;;;;;;;6.70;4.83;;;;;;;;;;5055707;28;20098;-73
2022/12/17 18:47:33;;;;;;;5.50;4.00;;;;;;;;;;5055747;28;20058;-73
2022/12/17 18:50:02;;;;;;;7.30;4.50;;;;;;;;;;5055165;28;20527;-74
2022/12/17 18:52:34;;;;;;;5.17;3.90;;;;;;;;;;5055603;28;20078;-73
2022/12/17 18:55:00;;;;;;;4.75;3.20;;;;;;;;;;5055552;28;20036;-74
2022/12/17 18:57:27;;;;;;;4.23;3.03;;;;;;;;;;5055391;28;20075;-73
2022/12/17 19:00:02;;;;;;;5.03;3.50;;;;;;;;;;5055607;28;20033;-74
2022/12/17 19:02:28;;;;;;;4.63;3.43;;;;;;;;;;5054376;28;20025;-73
2022/12/17 19:04:57;;;;;;;4.80;3.60;;;;;;;;;;5055328;28;20021;-73
2022/12/17 19:07:24;;;;;;;4.40;3.37;;;;;;;;;;5055588;28;20025;-73
2022/12/17 19:09:50;;;;;;;4.90;3.43;;;;;;;;;;5055523;28;20429;-73
2022/12/17 19:12:16;;;;;;;3.87;3.13;;;;;;;;;;5054946;28;20025;-74
2022/12/17 19:14:42;;;;;;;4.43;3.27;;;;;;;;;;5055181;28;20399;-73
2022/12/17 19:17:09;;;;;;;10.63;6.10;;;;;;;;;;5055423;28;20383;-73
2022/12/17 19:19:35;;;;;;;4.40;3.10;;;;;;;;;;5054981;28;20151;-73
2022/12/17 19:22:02;;;;;;;4.83;3.53;;;;;;;;;;5055308;28;20154;-73
2022/12/17 19:24:28;;;;;;;5.67;4.27;;;;;;;;;;5054939;28;20017;-73
2022/12/17 19:26:54;;;;;;;4.73;3.37;;;;;;;;;;5054979;28;20386;-73
2022/12/17 19:29:20;;;;;;;4.70;3.53;;;;;;;;;;5054889;28;20025;-73
2022/12/17 19:31:46;;;;;;;4.70;3.40;;;;;;;;;;5054912;28;20025;-73
2022/12/17 19:34:13;;;;;;;5.53;3.33;;;;;;;;;;5054512;28;20044;-72
2022/12/17 19:36:40;;;;;;;4.20;3.20;;;;;;;;;;5054582;28;20021;-73
2022/12/17 19:39:08;;;;;;;4.33;3.23;;;;;;;;;;5053621;28;20438;-73
2022/12/17 19:41:34;;;;;;;4.83;3.07;;;;;;;;;;5054601;28;20048;-73
2022/12/17 19:44:04;;;;;;;3.73;2.83;;;;;;;;;;5054528;28;20487;-73
2022/12/17 19:46:31;;;;;;;4.00;2.93;;;;;;;;;;5054592;28;20463;-73
2022/12/17 19:48:57;;;;;;;4.17;2.93;;;;;;;;;;5054131;28;20029;-73
2022/12/17 19:51:24;;;;;;;4.10;3.03;;;;;;;;;;5054286;28;20471;-73
2022/12/17 19:53:50;;;;;;;4.20;3.23;;;;;;;;;;5054272;28;20029;-73
2022/12/17 19:56:23;;;;;;;5.13;3.47;;;;;;;;;;5054392;28;20071;-74
2022/12/17 19:58:51;;;;;;;6.47;3.10;;;;;;;;;;5054358;28;20029;-73
2022/12/17 20:01:24;;;;;;;5.33;3.20;;;;;;;;;;5054277;28;20025;-73
2022/12/17 20:03:51;;;;;;;4.60;3.60;;;;;;;;;;5054297;28;20025;-72
2022/12/17 20:06:18;;;;;;;3.83;2.70;;;;;;;;;;5054024;28;20467;-73
2022/12/17 20:08:44;;;;;;;5.20;3.40;;;;;;;;;;5053498;28;20025;-72
2022/12/17 20:13:59;;;;;;;13.00;8.60;;;;;;;;;;5052946;28;20067;-72
2022/12/17 20:16:25;;;;;;;18.87;12.43;;;;;;;;;;5054255;28;20032;-74
2022/12/17 20:18:51;;;;;;;8.97;6.90;;;;;;;;;;5053614;28;20483;-73
2022/12/17 20:21:18;;;;;;;10.73;6.67;;;;;;;;;;5053828;28;20049;-73
2022/12/17 20:23:48;;;;;;;35.93;21.80;;;;;;;;;;5054158;28;20018;-72
2022/12/17 20:26:15;;;;;;;13.97;8.90;;;;;;;;;;5052646;28;20025;-72
2022/12/17 20:28:41;;;;;;;32.27;20.20;;;;;;;;;;5053849;28;20036;-72
2022/12/17 20:31:10;;;;;;;15.70;9.33;;;;;;;;;;5054317;28;20017;-73
2022/12/17 20:33:46;;;;;;;18.87;11.47;;;;;;;;;;5052851;28;20063;-74
2022/12/17 20:36:42;;;;;;;19.03;11.20;;;;;;;;;;5053659;28;20032;-72
2022/12/17 20:39:12;;;;;;;26.10;16.67;;;;;;;;;;5053707;28;20021;-73
2022/12/17 20:41:50;;;;;;;12.97;9.53;;;;;;;;;;5052396;28;20029;-74
2022/12/17 20:44:36;;;;;;;11.57;9.57;;;;;;;;;;5053204;28;20405;-74
2022/12/17 20:47:06;;;;;;;5.83;4.70;;;;;;;;;;5053163;28;20430;-73
2022/12/17 20:49:38;;;;;;;5.00;4.13;;;;;;;;;;5052809;28;20017;-74
2022/12/17 20:52:04;;;;;;;6.55;5.55;;;;;;;;;;5053397;28;20100;-74
2022/12/17 20:54:30;;;;;;;4.83;4.03;;;;;;;;;;5052001;28;20457;-73
2022/12/17 20:56:56;;;;;;;6.30;4.27;;;;;;;;;;5053139;28;20071;-72
2022/12/17 20:59:22;;;;;;;6.67;4.23;;;;;;;;;;5041255;28;20388;-72
2022/12/17 21:01:49;;;;;;;6.43;4.47;;;;;;;;;;5031801;28;20442;-72
2022/12/17 21:04:15;;;;;;;5.93;4.20;;;;;;;;;;5039755;28;20083;-73
2022/12/17 21:06:42;;;;;;;5.93;4.20;;;;;;;;;;5041620;28;20021;-73
2022/12/17 21:09:09;;;;;;;5.73;4.00;;;;;;;;;;5041896;28;20067;-73
2022/12/17 21:11:36;;;;;;;6.00;4.80;;;;;;;;;;5042028;28;20024;-74
2022/12/17 21:14:04;;;;;;;5.40;3.50;;;;;;;;;;5042947;28;20487;-73
2022/12/17 21:16:31;;;;;;;4.97;3.70;;;;;;;;;;5042362;28;20494;-74
2022/12/17 21:18:58;;;;;;;5.73;4.07;;;;;;;;;;5041727;28;20020;-73
2022/12/17 21:21:26;;;;;;;4.73;3.90;;;;;;;;;;5043192;28;20017;-72
2022/12/17 21:23:52;;;;;;;5.00;3.70;;;;;;;;;;5035165;28;20479;-73
2022/12/17 21:26:29;;;;;;;5.27;3.70;;;;;;;;;;5031843;28;20510;-73
2022/12/17 21:28:56;;;;;;;5.90;4.03;;;;;;;;;;5033108;28;20108;-72
2022/12/17 21:31:27;;;;;;;6.73;4.80;;;;;;;;;;5030724;28;20505;-74
2022/12/17 21:33:54;;;;;;;5.83;4.27;;;;;;;;;;5034592;28;20057;-74
2022/12/17 21:36:21;;;;;;;5.80;4.03;;;;;;;;;;5034854;28;20024;-75
2022/12/17 21:38:48;;;;;;;5.63;4.53;;;;;;;;;;5032340;28;20411;-75
2022/12/17 21:41:18;;;;;;;5.53;4.13;;;;;;;;;;5036340;28;20531;-73
2022/12/17 21:43:44;;;;;;;5.70;4.03;;;;;;;;;;5042338;28;20025;-75
2022/12/17 21:46:11;;;;;;;5.27;3.90;;;;;;;;;;5040102;28;20026;-77
2022/12/17 21:48:38;;;;;;;7.07;4.53;;;;;;;;;;5041646;28;20116;-72
2022/12/17 21:51:05;;;;;;;4.67;3.50;;;;;;;;;;5043140;28;20533;-73
2022/12/17 21:53:31;;;;;;;6.17;4.70;;;;;;;;;;5040693;28;20494;-74
2022/12/17 21:56:04;;;;;;;6.60;4.90;;;;;;;;;;5042809;28;20052;-74
2022/12/17 21:58:30;;;;;;;5.10;4.20;;;;;;;;;;5051177;28;20487;-73
2022/12/17 22:00:56;;;;;;;6.10;4.03;;;;;;;;;;5044022;28;20116;-73
2022/12/17 22:03:22;;;;;;;6.53;4.60;;;;;;;;;;5043083;28;20029;-75
2022/12/17 22:05:48;;;;;;;6.33;4.30;;;;;;;;;;5043274;28;20025;-74
2022/12/17 22:08:15;;;;;;;6.43;4.30;;;;;;;;;;5036255;28;20505;-73
2022/12/17 22:10:46;;;;;;;7.17;4.80;;;;;;;;;;5038779;28;20028;-73
2022/12/17 22:16:07;;;;;;;7.33;4.63;;;;;;;;;;5030397;28;20079;-73
2022/12/17 22:18:37;;;;;;;8.60;6.50;;;;;;;;;;5030580;28;20484;-73
2022/12/17 22:21:06;;;;;;;9.23;6.53;;;;;;;;;;5031956;28;20017;-73
2022/12/17 22:23:38;;;;;;;6.07;3.93;;;;;;;;;;5031208;28;20021;-73
2022/12/17 22:26:09;;;;;;;8.68;5.97;;;;;;;;;;5031866;28;20494;-73
2022/12/17 22:28:47;;;;;;;9.00;5.80;;;;;;;;;;5032164;28;20026;-72
2022/12/17 22:33:58;;;;;;;8.53;6.80;;;;;;;;;;5031389;28;20060;-73
2022/12/17 22:36:30;;;;;;;6.07;4.27;;;;;;;;;;5031610;28;20029;-73
2022/12/17 22:38:59;;;;;;;7.03;4.73;;;;;;;;;;5035613;28;20036;-73
2022/12/17 22:44:10;;;;;;;5.87;4.33;;;;;;;;;;5035493;28;20522;-72
2022/12/17 22:46:36;;;;;;;9.27;5.33;;;;;;;;;;5034154;28;20033;-72
2022/12/17 22:49:02;;;;;;;6.87;5.03;;;;;;;;;;5035229;28;20361;-73
2022/12/17 22:51:28;;;;;;;6.30;4.60;;;;;;;;;;5035110;28;20026;-73
2022/12/17 22:53:54;;;;;;;5.90;4.67;;;;;;;;;;5035088;28;20503;-73
2022/12/17 22:56:21;;;;;;;5.47;4.30;;;;;;;;;;5034760;28;20033;-73
2022/12/17 22:58:47;;;;;;;6.77;4.73;;;;;;;;;;5033897;28;20112;-73
2022/12/17 23:01:13;;;;;;;6.67;4.40;;;;;;;;;;5035020;28;20476;-72
2022/12/17 23:03:39;;;;;;;6.40;4.57;;;;;;;;;;5034762;28;20025;-73
2022/12/17 23:06:06;;;;;;;6.17;4.63;;;;;;;;;;5034932;28;20060;-73
2022/12/17 23:08:32;;;;;;;7.40;4.47;;;;;;;;;;5034183;28;20025;-72
2022/12/17 23:10:58;;;;;;;5.40;4.17;;;;;;;;;;5034470;28;20029;-72
2022/12/17 23:13:24;;;;;;;5.80;3.97;;;;;;;;;;5034438;28;20553;-73
2022/12/17 23:15:51;;;;;;;5.63;4.20;;;;;;;;;;5035261;28;20033;-73
2022/12/17 23:18:17;;;;;;;5.87;4.40;;;;;;;;;;5034471;28;20502;-73
2022/12/17 23:20:43;;;;;;;6.33;4.70;;;;;;;;;;5034384;28;20022;-73
2022/12/17 23:23:09;;;;;;;6.63;4.43;;;;;;;;;;5034904;28;20029;-72
2022/12/17 23:25:35;;;;;;;6.53;4.60;;;;;;;;;;5034642;28;20029;-73
2022/12/17 23:28:01;;;;;;;6.20;4.30;;;;;;;;;;5034851;28;20036;-73
2022/12/17 23:30:27;;;;;;;7.37;4.67;;;;;;;;;;5032772;28;20546;-72
2022/12/17 23:32:53;;;;;;;5.60;4.27;;;;;;;;;;5034235;28;20057;-73
2022/12/17 23:35:19;;;;;;;6.77;4.60;;;;;;;;;;5033882;28;20423;-73
2022/12/17 23:37:46;;;;;;;5.47;4.00;;;;;;;;;;5033977;28;20468;-72
2022/12/17 23:40:12;;;;;;;6.27;4.43;;;;;;;;;;5033999;28;20035;-72
2022/12/17 23:42:38;;;;;;;6.90;4.33;;;;;;;;;;5034675;28;20088;-72
2022/12/17 23:45:05;;;;;;;7.03;4.63;;;;;;;;;;5034992;28;20025;-73
2022/12/17 23:47:32;;;;;;;6.27;4.43;;;;;;;;;;5035001;28;20100;-72
2022/12/17 23:49:58;;;;;;;7.97;5.23;;;;;;;;;;5033810;28;20022;-72
2022/12/17 23:52:24;;;;;;;5.77;4.27;;;;;;;;;;5034282;28;20025;-73
2022/12/17 23:54:59;;;;;;;6.33;4.30;;;;;;;;;;5034022;28;20416;-72
2022/12/17 23:57:37;;;;;;;6.80;4.87;;;;;;;;;;5033171;28;20021;-73
